Time;durP1;ratioP1;P1;durP2;ratioP2;P2;SDS_P1;SDS_P2;PMS_P1;PMS_P2;Temp;Humidity;BMP_temperature;BMP_pressure;BME280_temperature;BME280_humidity;BME280_pressure;Samples;Min_cycle;Max_cycle;Signal;HPM_P1;HPM_P2
2020/12/21 00:01:43;;;;;;;18.73;11.77;;;4.30;99.90;;;;;;5031923;28;20167;-61
2020/12/21 00:04:08;;;;;;;16.42;9.95;;;4.30;99.90;;;;;;5037070;28;20017;-59
2020/12/21 00:06:34;;;;;;;14.07;9.25;;;4.30;99.90;;;;;;5038341;28;20033;-59
2020/12/21 00:09:00;;;;;;;14.77;9.23;;;4.30;99.90;;;;;;5041577;28;20044;-59
2020/12/21 00:11:36;;;;;;;12.80;8.48;;;4.30;99.90;;;;;;5043259;28;20025;-59
2020/12/21 00:14:02;;;;;;;;;;;4.30;99.90;;;;;;5032000;28;20056;-59
2020/12/21 00:16:39;;;;;;;12.88;8.02;;;4.20;99.90;;;;;;5062064;28;20032;-59
2020/12/21 00:19:06;;;;;;;14.38;8.00;;;4.20;99.90;;;;;;5030494;28;20086;-59
2020/12/21 00:21:32;;;;;;;12.65;8.50;;;4.20;99.90;;;;;;5030145;28;20026;-59
2020/12/21 00:23:58;;;;;;;13.55;8.55;;;4.20;99.90;;;;;;5035520;28;20025;-59
2020/12/21 00:26:23;;;;;;;12.63;8.60;;;4.20;99.90;;;;;;5032743;28;20017;-59
2020/12/21 00:28:49;;;;;;;13.40;8.80;;;4.20;99.90;;;;;;5031440;28;20032;-59
2020/12/21 00:31:26;;;;;;;15.65;9.02;;;4.20;99.90;;;;;;5035781;28;20037;-59
2020/12/21 00:33:52;;;;;;;12.98;8.63;;;4.20;99.90;;;;;;5048225;28;20485;-59
2020/12/21 00:36:18;;;;;;;17.38;11.02;;;4.20;99.90;;;;;;5040592;28;20042;-59
2020/12/21 00:38:44;;;;;;;15.43;9.43;;;4.20;99.90;;;;;;5043150;28;20478;-59
2020/12/21 00:41:13;;;;;;;15.25;10.60;;;4.20;99.90;;;;;;5035805;28;20049;-59
2020/12/21 00:43:39;;;;;;;18.48;10.02;;;4.20;99.90;;;;;;5034090;28;20074;-59
2020/12/21 00:46:04;;;;;;;13.63;8.77;;;4.20;99.90;;;;;;5033237;28;20067;-59
2020/12/21 00:48:30;;;;;;;14.88;9.38;;;4.20;99.90;;;;;;5035260;28;20029;-59
2020/12/21 00:50:57;;;;;;;19.10;10.38;;;4.20;99.90;;;;;;5047153;28;20108;-59
2020/12/21 00:53:23;;;;;;;19.63;11.95;;;4.20;99.90;;;;;;5033391;28;20482;-59
2020/12/21 00:55:49;;;;;;;19.98;12.02;;;4.20;99.90;;;;;;5032709;28;20029;-59
2020/12/21 00:58:14;;;;;;;15.38;9.38;;;4.20;99.90;;;;;;5040502;28;20159;-59
2020/12/21 01:00:39;;;;;;;18.08;10.65;;;4.20;99.90;;;;;;5033338;28;20065;-59
2020/12/21 01:03:05;;;;;;;18.17;11.07;;;4.20;99.90;;;;;;5033549;28;20124;-59
2020/12/21 01:05:31;;;;;;;18.05;10.98;;;4.20;99.90;;;;;;5039656;28;20021;-59
2020/12/21 01:07:56;;;;;;;17.42;11.00;;;4.20;99.90;;;;;;5032326;28;20036;-59
2020/12/21 01:10:22;;;;;;;16.05;10.05;;;4.20;99.90;;;;;;5044641;28;20025;-59
2020/12/21 01:12:47;;;;;;;17.13;9.70;;;4.20;99.90;;;;;;5038757;28;20048;-59
2020/12/21 01:15:12;;;;;;;15.65;10.32;;;4.20;99.90;;;;;;5033135;28;20078;-59
2020/12/21 01:17:38;;;;;;;16.55;10.55;;;4.20;99.90;;;;;;5032833;28;20037;-59
2020/12/21 01:20:05;;;;;;;16.88;9.75;;;4.20;99.90;;;;;;5037594;28;20034;-58
2020/12/21 01:22:30;;;;;;;13.93;8.93;;;4.20;99.90;;;;;;5032175;28;20437;-59
2020/12/21 01:24:56;;;;;;;16.17;9.73;;;4.20;99.90;;;;;;5037927;28;20061;-59
2020/12/21 01:27:21;;;;;;;15.02;9.48;;;4.20;99.90;;;;;;5037080;28;20549;-59
2020/12/21 01:29:47;;;;;;;15.13;8.73;;;4.20;99.90;;;;;;5037443;28;20112;-59
2020/12/21 01:32:12;;;;;;;17.30;9.10;;;4.30;99.90;;;;;;5041742;28;20027;-59
2020/12/21 01:34:38;;;;;;;12.63;7.90;;;4.20;99.90;;;;;;5036605;28;20043;-59
2020/12/21 01:37:04;;;;;;;13.50;8.00;;;4.20;99.90;;;;;;5037666;28;20044;-59
2020/12/21 01:39:29;;;;;;;15.27;8.18;;;4.20;99.90;;;;;;5040616;28;20104;-59
2020/12/21 01:41:54;;;;;;;14.75;8.30;;;4.20;99.90;;;;;;5033188;28;20033;-59
2020/12/21 01:44:20;;;;;;;14.18;8.38;;;4.20;99.90;;;;;;5040034;28;20668;-59
2020/12/21 01:46:45;;;;;;;12.85;7.72;;;4.20;99.90;;;;;;5044707;28;20033;-59
2020/12/21 01:49:11;;;;;;;15.55;8.65;;;4.10;99.90;;;;;;5033297;28;20401;-57
2020/12/21 01:51:36;;;;;;;16.38;10.45;;;4.10;99.90;;;;;;5037944;28;20055;-59
2020/12/21 01:54:03;;;;;;;17.77;9.85;;;4.10;99.90;;;;;;5035175;28;20193;-59
2020/12/21 01:56:29;;;;;;;14.25;8.43;;;4.00;99.90;;;;;;5036231;28;20022;-60
2020/12/21 01:58:54;;;;;;;16.58;8.98;;;4.00;99.90;;;;;;5038763;28;20029;-58
2020/12/21 02:01:20;;;;;;;16.80;10.32;;;3.90;99.90;;;;;;5037474;28;20208;-59
2020/12/21 02:03:48;;;;;;;18.15;10.32;;;3.90;99.90;;;;;;5033435;28;20441;-59
2020/12/21 02:06:13;;;;;;;18.88;11.70;;;3.90;99.90;;;;;;5042964;28;20452;-59
2020/12/21 02:08:40;;;;;;;20.83;12.02;;;3.90;99.90;;;;;;5034514;28;20105;-59
2020/12/21 02:11:05;;;;;;;16.60;10.43;;;3.80;99.90;;;;;;5034076;28;20379;-59
2020/12/21 02:13:31;;;;;;;16.08;10.48;;;3.80;99.90;;;;;;5033816;28;20029;-59
2020/12/21 02:15:58;;;;;;;23.45;13.07;;;3.80;99.90;;;;;;5037305;28;20359;-59
2020/12/21 02:18:23;;;;;;;15.13;8.93;;;3.80;99.90;;;;;;5035990;28;20367;-59
2020/12/21 02:20:49;;;;;;;14.18;8.00;;;3.80;99.90;;;;;;5032693;28;20040;-58
2020/12/21 02:23:16;;;;;;;16.40;10.10;;;3.70;99.90;;;;;;5032270;28;20025;-59
2020/12/21 02:25:41;;;;;;;22.05;13.18;;;3.70;99.90;;;;;;5035132;28;20021;-59
2020/12/21 02:28:07;;;;;;;20.75;11.05;;;3.80;99.90;;;;;;5042996;28;20363;-59
2020/12/21 02:30:32;;;;;;;18.75;10.27;;;3.70;99.90;;;;;;5039029;28;20037;-58
2020/12/21 02:32:58;;;;;;;16.90;10.60;;;3.70;99.90;;;;;;5039166;28;20528;-59
2020/12/21 02:35:23;;;;;;;17.55;9.32;;;3.60;99.90;;;;;;5037945;28;20492;-59
2020/12/21 02:37:49;;;;;;;21.58;13.43;;;3.60;99.90;;;;;;5042183;28;20040;-59
2020/12/21 02:40:14;;;;;;;21.35;11.20;;;3.60;99.90;;;;;;5046277;28;20076;-59
2020/12/21 02:42:40;;;;;;;17.38;10.38;;;3.60;99.90;;;;;;5035239;28;20075;-59
2020/12/21 02:45:05;;;;;;;18.92;11.15;;;3.60;99.90;;;;;;5048581;28;20020;-59
2020/12/21 02:47:31;;;;;;;19.85;11.23;;;3.70;99.90;;;;;;5032782;28;20033;-59
2020/12/21 02:49:56;;;;;;;22.08;12.15;;;3.70;99.90;;;;;;5038333;28;20096;-58
2020/12/21 02:52:22;;;;;;;20.55;11.55;;;3.80;99.90;;;;;;5035693;28;20091;-59
2020/12/21 02:54:48;;;;;;;16.25;9.50;;;3.80;99.90;;;;;;5032052;28;20053;-59
2020/12/21 02:57:13;;;;;;;19.58;11.20;;;3.90;99.90;;;;;;5041454;28;20040;-60
2020/12/21 02:59:40;;;;;;;19.90;10.95;;;3.90;99.90;;;;;;5037433;28;20033;-57
2020/12/21 03:02:05;;;;;;;16.92;9.25;;;4.00;99.90;;;;;;5041212;28;20099;-59
2020/12/21 03:04:31;;;;;;;17.05;9.27;;;4.00;99.90;;;;;;5036329;28;20486;-59
2020/12/21 03:06:56;;;;;;;14.88;8.88;;;4.10;99.90;;;;;;5031888;28;20048;-59
2020/12/21 03:09:22;;;;;;;16.65;9.30;;;4.10;99.90;;;;;;5034964;28;20036;-60
2020/12/21 03:11:47;;;;;;;14.98;8.63;;;4.20;99.90;;;;;;5032832;28;20507;-59
2020/12/21 03:14:13;;;;;;;17.48;9.43;;;4.20;99.90;;;;;;5036141;28;20049;-59
2020/12/21 03:16:39;;;;;;;20.52;11.07;;;4.20;99.90;;;;;;5031303;28;20030;-59
2020/12/21 03:19:05;;;;;;;16.17;8.73;;;4.20;99.90;;;;;;5032016;28;20030;-59
2020/12/21 03:21:31;;;;;;;15.75;9.18;;;4.30;99.90;;;;;;5031887;28;20419;-59
2020/12/21 03:23:57;;;;;;;17.65;9.60;;;4.30;99.90;;;;;;5035841;28;20150;-59
2020/12/21 03:26:22;;;;;;;16.77;9.73;;;4.40;99.90;;;;;;5035080;28;20021;-59
2020/12/21 03:28:48;;;;;;;17.15;10.05;;;4.40;99.90;;;;;;5042360;28;20501;-60
2020/12/21 03:31:14;;;;;;;14.65;8.50;;;4.40;99.90;;;;;;5038541;28;20092;-59
2020/12/21 03:33:39;;;;;;;14.77;8.20;;;4.40;99.90;;;;;;5032672;28;20037;-59
2020/12/21 03:36:05;;;;;;;15.23;8.95;;;4.40;99.90;;;;;;5032207;28;20032;-59
2020/12/21 03:38:30;;;;;;;16.75;9.27;;;4.40;99.90;;;;;;5035787;28;20033;-59
2020/12/21 03:40:56;;;;;;;18.65;10.35;;;4.50;99.90;;;;;;5032179;28;20183;-59
2020/12/21 03:43:21;;;;;;;16.50;8.88;;;4.50;99.90;;;;;;5032696;28;20553;-59
2020/12/21 03:45:48;;;;;;;15.65;9.85;;;4.50;99.90;;;;;;5034911;28;20021;-59
2020/12/21 03:48:14;;;;;;;17.83;9.75;;;4.50;99.90;;;;;;5039819;28;20052;-59
2020/12/21 03:50:40;;;;;;;15.68;8.88;;;4.50;99.90;;;;;;5038347;28;20080;-59
2020/12/21 03:53:06;;;;;;;25.48;12.85;;;4.50;99.90;;;;;;5033777;28;20478;-59
2020/12/21 03:55:31;;;;;;;15.57;8.52;;;4.60;99.90;;;;;;5035650;28;20055;-59
2020/12/21 03:57:57;;;;;;;21.13;13.48;;;4.60;99.90;;;;;;5033841;28;20033;-59
2020/12/21 04:00:22;;;;;;;20.33;11.73;;;4.60;99.90;;;;;;5037123;28;20112;-59
2020/12/21 04:02:48;;;;;;;19.92;11.38;;;4.60;99.90;;;;;;5030674;28;20072;-59
2020/12/21 04:05:13;;;;;;;19.08;9.55;;;4.60;99.90;;;;;;5030756;28;20025;-59
2020/12/21 04:07:39;;;;;;;18.30;11.05;;;4.60;99.90;;;;;;5030279;28;20036;-59
2020/12/21 04:10:06;;;;;;;19.48;11.10;;;4.60;99.90;;;;;;5032886;28;20060;-59
2020/12/21 04:12:33;;;;;;;17.70;9.93;;;4.60;99.90;;;;;;5039677;28;20032;-59
2020/12/21 04:14:58;;;;;;;16.52;10.02;;;4.60;99.90;;;;;;5034777;28;20033;-59
2020/12/21 04:17:24;;;;;;;13.40;8.60;;;4.60;99.90;;;;;;5037039;28;20035;-59
2020/12/21 04:19:49;;;;;;;17.73;9.50;;;4.60;99.90;;;;;;5038224;28;20052;-59
2020/12/21 04:22:15;;;;;;;21.15;11.27;;;4.60;99.90;;;;;;5036996;28;20028;-60
2020/12/21 04:24:40;;;;;;;17.33;9.75;;;4.70;99.90;;;;;;5032104;28;20033;-59
2020/12/21 04:27:05;;;;;;;20.00;10.52;;;4.70;99.90;;;;;;5035424;28;20060;-59
2020/12/21 04:29:31;;;;;;;17.75;10.27;;;4.70;99.90;;;;;;5035705;28;20032;-59
2020/12/21 04:31:57;;;;;;;19.08;11.25;;;4.70;99.90;;;;;;5042811;28;20060;-59
2020/12/21 04:34:25;;;;;;;19.15;10.00;;;4.70;99.90;;;;;;5037042;28;20063;-59
2020/12/21 04:36:54;;;;;;;16.48;9.38;;;4.70;99.90;;;;;;5030686;28;20032;-59
2020/12/21 04:39:21;;;;;;;16.67;9.18;;;4.70;99.90;;;;;;5036772;28;20021;-59
2020/12/21 04:41:57;;;;;;;15.25;8.50;;;4.80;99.90;;;;;;5034376;28;20075;-59
2020/12/21 04:44:24;;;;;;;14.50;8.15;;;4.70;99.90;;;;;;5032984;28;20021;-59
2020/12/21 04:46:57;;;;;;;16.00;8.80;;;4.80;99.90;;;;;;5035129;28;20029;-59
2020/12/21 04:49:23;;;;;;;18.23;10.30;;;4.80;99.90;;;;;;5034202;28;20036;-58
2020/12/21 04:51:50;;;;;;;16.60;8.75;;;4.80;99.90;;;;;;5032381;28;20047;-59
2020/12/21 04:54:17;;;;;;;15.43;9.15;;;4.80;99.90;;;;;;5034638;28;20039;-59
2020/12/21 04:56:44;;;;;;;13.93;8.20;;;4.80;99.90;;;;;;5041421;28;20393;-59
2020/12/21 04:59:14;;;;;;;17.60;9.73;;;4.80;99.90;;;;;;5033609;28;20650;-59
2020/12/21 05:01:40;;;;;;;21.85;13.18;;;4.80;99.90;;;;;;5034753;28;20042;-59
2020/12/21 05:04:06;;;;;;;16.35;9.38;;;4.80;99.90;;;;;;5034409;28;20037;-59
2020/12/21 05:06:32;;;;;;;18.38;10.20;;;4.80;99.90;;;;;;5032943;28;20071;-59
2020/12/21 05:09:06;;;;;;;15.73;8.73;;;4.90;99.90;;;;;;5030005;28;20493;-59
2020/12/21 05:11:33;;;;;;;15.40;8.40;;;4.90;99.90;;;;;;5035733;28;20039;-59
2020/12/21 05:14:05;;;;;;;16.58;9.40;;;4.90;99.90;;;;;;5034018;28;20825;-59
2020/12/21 05:16:31;;;;;;;18.73;10.23;;;4.90;99.90;;;;;;5033883;28;20032;-59
2020/12/21 05:18:56;;;;;;;19.67;10.65;;;4.90;99.90;;;;;;5034059;28;20294;-59
2020/12/21 05:21:26;;;;;;;21.48;12.00;;;4.90;99.90;;;;;;5040954;28;20044;-59
2020/12/21 05:23:59;;;;;;;20.70;11.48;;;4.90;99.90;;;;;;5033627;28;20025;-59
2020/12/21 05:26:32;;;;;;;20.88;11.13;;;4.90;99.90;;;;;;5033852;28;20021;-59
2020/12/21 05:28:59;;;;;;;21.48;10.95;;;4.90;99.90;;;;;;5047978;28;20030;-59
2020/12/21 05:31:26;;;;;;;19.02;10.18;;;4.90;99.90;;;;;;5046594;28;20025;-59
2020/12/21 05:33:52;;;;;;;15.68;8.95;;;4.90;99.90;;;;;;5033908;28;20031;-59
2020/12/21 05:36:21;;;;;;;21.00;10.80;;;4.90;99.90;;;;;;5047367;28;20441;-59
2020/12/21 05:39:02;;;;;;;16.27;9.88;;;4.90;99.90;;;;;;5035587;28;20112;-60
2020/12/21 05:41:29;;;;;;;18.58;10.73;;;4.90;99.90;;;;;;5076319;28;20040;-59
2020/12/21 05:43:56;;;;;;;20.00;12.38;;;4.90;99.90;;;;;;5039023;28;20031;-60
2020/12/21 05:46:24;;;;;;;15.63;9.57;;;4.90;99.90;;;;;;5037322;28;20072;-59
2020/12/21 05:48:55;;;;;;;18.17;10.18;;;5.00;99.90;;;;;;5037364;28;20025;-59
2020/12/21 05:51:21;;;;;;;18.17;10.25;;;5.00;99.90;;;;;;5042383;28;20035;-59
2020/12/21 05:53:46;;;;;;;17.02;9.73;;;5.00;99.90;;;;;;5044468;28;20025;-59
2020/12/21 05:56:12;;;;;;;26.10;14.48;;;5.00;99.90;;;;;;5034155;28;20029;-59
2020/12/21 05:58:39;;;;;;;22.13;12.63;;;5.00;99.90;;;;;;5038123;28;20059;-60
2020/12/21 06:01:10;;;;;;;18.30;10.07;;;5.00;99.90;;;;;;5032112;28;20052;-61
2020/12/21 06:03:43;;;;;;;19.23;10.27;;;5.00;99.90;;;;;;5038174;28;20029;-59
2020/12/21 06:06:21;;;;;;;19.15;11.75;;;5.00;99.90;;;;;;5045052;28;20116;-59
2020/12/21 06:08:54;;;;;;;18.23;9.68;;;5.10;99.90;;;;;;5031809;28;20029;-59
2020/12/21 06:11:28;;;;;;;19.73;11.50;;;5.00;99.90;;;;;;5036533;28;20030;-60
2020/12/21 06:13:59;;;;;;;20.92;12.38;;;5.00;99.90;;;;;;5041217;28;20504;-59
2020/12/21 06:16:26;;;;;;;19.48;10.63;;;5.00;99.90;;;;;;5037057;28;20025;-59
2020/12/21 06:19:04;;;;;;;18.88;10.45;;;5.00;99.90;;;;;;5035955;28;20044;-59
2020/12/21 06:21:35;;;;;;;21.08;11.50;;;5.00;99.90;;;;;;5039242;28;20033;-60
2020/12/21 06:24:02;;;;;;;19.98;12.40;;;5.00;99.90;;;;;;5038234;28;20079;-59
2020/12/21 06:26:32;;;;;;;21.60;12.88;;;5.00;99.90;;;;;;5030914;28;20401;-59
2020/12/21 06:29:00;;;;;;;20.48;11.27;;;5.00;99.90;;;;;;5033061;28;20397;-59
2020/12/21 06:31:37;;;;;;;20.05;10.88;;;5.00;99.90;;;;;;5038056;28;20035;-60
2020/12/21 06:34:02;;;;;;;24.33;13.35;;;5.10;99.90;;;;;;5036717;28;20043;-59
2020/12/21 06:36:33;;;;;;;18.95;11.38;;;5.00;99.90;;;;;;5033133;28;20112;-59
2020/12/21 06:38:58;;;;;;;18.50;11.07;;;5.00;99.90;;;;;;5034153;28;20052;-59
2020/12/21 06:41:25;;;;;;;17.17;9.48;;;5.00;99.90;;;;;;5033924;28;20068;-59
2020/12/21 06:44:02;;;;;;;17.90;9.82;;;5.00;99.90;;;;;;5034332;28;20108;-59
2020/12/21 06:46:29;;;;;;;14.02;8.32;;;5.00;99.90;;;;;;5032480;28;20028;-60
2020/12/21 06:49:06;;;;;;;20.08;10.65;;;4.90;99.90;;;;;;5032747;28;20505;-59
2020/12/21 06:51:34;;;;;;;20.60;10.60;;;4.90;99.90;;;;;;5039778;28;20528;-60
2020/12/21 06:54:04;;;;;;;16.40;9.60;;;4.90;99.90;;;;;;5032327;28;20187;-59
2020/12/21 06:56:31;;;;;;;19.33;9.80;;;5.00;99.90;;;;;;5038300;28;20104;-59
2020/12/21 06:58:57;;;;;;;16.27;9.60;;;4.90;99.90;;;;;;5032024;28;20036;-59
2020/12/21 07:01:25;;;;;;;17.63;9.80;;;4.90;99.90;;;;;;5038642;28;20029;-59
2020/12/21 07:03:51;;;;;;;14.70;8.73;;;4.90;99.90;;;;;;5036249;28;20116;-59
2020/12/21 07:06:17;;;;;;;14.35;8.30;;;4.90;99.90;;;;;;5037459;28;20071;-60
2020/12/21 07:08:43;;;;;;;17.20;9.13;;;4.90;99.90;;;;;;5042710;28;20037;-59
2020/12/21 07:11:16;;;;;;;17.45;9.38;;;4.80;99.90;;;;;;5035983;28;20025;-59
2020/12/21 07:13:42;;;;;;;17.30;9.05;;;4.80;99.90;;;;;;5031844;28;20037;-59
2020/12/21 07:16:09;;;;;;;15.40;9.20;;;4.80;99.90;;;;;;5042893;28;20037;-60
2020/12/21 07:18:34;;;;;;;19.63;10.10;;;4.80;99.90;;;;;;5042349;28;20035;-59
2020/12/21 07:21:00;;;;;;;20.98;10.68;;;4.90;99.90;;;;;;5031497;28;20481;-59
2020/12/21 07:23:26;;;;;;;16.92;9.18;;;4.80;99.90;;;;;;5030659;28;20167;-59
2020/12/21 07:25:52;;;;;;;16.63;9.63;;;4.90;99.90;;;;;;5035216;28;20488;-59
2020/12/21 07:28:27;;;;;;;17.65;10.70;;;4.90;99.90;;;;;;5036736;28;20033;-59
2020/12/21 07:30:52;;;;;;;15.38;8.45;;;4.90;99.90;;;;;;5032565;28;20179;-59
2020/12/21 07:33:18;;;;;;;16.52;10.38;;;4.90;99.90;;;;;;5035256;28;20120;-59
2020/12/21 07:35:55;;;;;;;18.38;10.60;;;4.90;99.90;;;;;;5033055;28;20029;-59
2020/12/21 07:38:22;;;;;;;17.05;10.10;;;4.90;99.90;;;;;;5033753;28;20028;-59
2020/12/21 07:40:48;;;;;;;19.30;11.63;;;4.90;99.90;;;;;;5032812;28;20609;-59
2020/12/21 07:43:18;;;;;;;26.08;15.27;;;4.90;99.90;;;;;;5032869;28;20037;-59
2020/12/21 07:45:47;;;;;;;19.17;10.35;;;5.00;99.90;;;;;;5036487;28;20029;-57
2020/12/21 07:48:13;;;;;;;17.73;9.77;;;4.90;99.90;;;;;;5036918;28;20039;-59
2020/12/21 07:50:45;;;;;;;19.27;10.23;;;5.00;99.90;;;;;;5036025;28;20041;-59
2020/12/21 07:53:11;;;;;;;19.63;10.70;;;5.00;99.90;;;;;;5031769;28;20482;-59
2020/12/21 07:55:36;;;;;;;21.45;11.20;;;5.00;99.90;;;;;;5031531;28;20042;-59
2020/12/21 07:58:13;;;;;;;15.68;9.60;;;5.00;99.90;;;;;;5033717;28;20052;-59
2020/12/21 08:00:39;;;;;;;15.68;8.73;;;5.00;99.90;;;;;;5043505;28;20068;-59
2020/12/21 08:03:08;;;;;;;16.13;9.40;;;4.90;99.90;;;;;;5033696;28;20072;-59
2020/12/21 08:05:33;;;;;;;18.73;9.85;;;4.90;99.90;;;;;;5033752;28;20014;-59
2020/12/21 08:07:59;;;;;;;15.15;8.98;;;4.90;99.90;;;;;;5034894;28;20048;-58
2020/12/21 08:10:24;;;;;;;17.05;9.75;;;5.00;99.90;;;;;;5034554;28;20021;-57
2020/12/21 08:12:50;;;;;;;15.95;9.35;;;5.00;99.90;;;;;;5036573;28;20104;-58
2020/12/21 08:15:19;;;;;;;16.52;8.98;;;5.00;99.90;;;;;;5034621;28;20033;-56
2020/12/21 08:17:45;;;;;;;16.40;8.93;;;5.10;99.90;;;;;;5031387;28;20032;-58
2020/12/21 08:20:10;;;;;;;26.25;12.73;;;5.10;99.90;;;;;;5032938;28;20021;-58
2020/12/21 08:22:37;;;;;;;19.25;9.52;;;5.10;99.90;;;;;;5031090;28;20033;-58
2020/12/21 08:25:10;;;;;;;23.33;13.35;;;5.20;99.90;;;;;;5035333;28;20032;-58
2020/12/21 08:27:58;;;;;;;16.58;10.15;;;5.20;99.90;;;;;;5034105;28;20022;-58
2020/12/21 08:30:24;;;;;;;21.42;11.30;;;5.40;99.90;;;;;;5031760;28;20044;-59
2020/12/21 08:32:52;;;;;;;15.88;9.50;;;5.40;99.90;;;;;;5037198;28;20029;-59
2020/12/21 08:35:24;;;;;;;13.23;8.38;;;5.50;99.90;;;;;;5036920;28;20370;-58
2020/12/21 08:37:51;;;;;;;14.88;8.90;;;5.60;99.90;;;;;;5030187;28;20030;-57
2020/12/21 08:40:21;;;;;;;15.48;8.27;;;5.70;99.90;;;;;;5032386;28;20053;-59
2020/12/21 08:42:47;;;;;;;16.60;8.55;;;5.80;99.90;;;;;;5037558;28;20507;-60
2020/12/21 08:45:21;;;;;;;15.98;9.35;;;5.70;99.90;;;;;;5041014;28;20029;-59
2020/12/21 08:47:47;;;;;;;14.80;7.68;;;5.80;99.90;;;;;;5035381;28;20408;-59
2020/12/21 08:50:13;;;;;;;12.13;7.75;;;5.80;99.90;;;;;;5036486;28;20056;-60
2020/12/21 08:52:38;;;;;;;15.85;8.13;;;5.80;99.90;;;;;;5041588;28;20033;-59
2020/12/21 08:55:06;;;;;;;15.23;8.85;;;5.90;99.90;;;;;;5039351;28;20071;-59
2020/12/21 08:57:33;;;;;;;14.35;8.77;;;6.00;99.90;;;;;;5035172;28;20498;-59
2020/12/21 08:59:58;;;;;;;16.77;8.38;;;6.10;99.90;;;;;;5042638;28;20037;-60
2020/12/21 09:02:23;;;;;;;17.42;8.82;;;6.40;99.90;;;;;;5046136;28;20029;-59
2020/12/21 09:04:49;;;;;;;11.43;7.13;;;6.90;99.90;;;;;;5048642;28;20029;-58
2020/12/21 09:07:14;;;;;;;13.20;7.35;;;7.20;99.90;;;;;;5047097;28;20120;-59
2020/12/21 09:09:40;;;;;;;11.80;6.70;;;7.40;99.90;;;;;;5043280;28;20032;-59
2020/12/21 09:12:05;;;;;;;12.13;7.60;;;7.40;99.90;;;;;;5039301;28;20105;-59
2020/12/21 09:14:31;;;;;;;15.63;6.95;;;7.40;99.90;;;;;;5037846;28;20057;-59
2020/12/21 09:16:56;;;;;;;12.45;8.13;;;7.40;99.90;;;;;;5042042;28;20170;-59
2020/12/21 09:19:22;;;;;;;12.18;6.93;;;7.30;99.90;;;;;;5034708;28;20414;-58
2020/12/21 09:21:47;;;;;;;14.63;8.20;;;7.30;99.90;;;;;;5039910;28;20037;-60
2020/12/21 09:24:13;;;;;;;11.45;6.70;;;7.30;99.90;;;;;;5040168;28;20033;-59
2020/12/21 09:26:38;;;;;;;13.77;7.78;;;7.20;99.90;;;;;;5045110;28;20108;-59
2020/12/21 09:29:04;;;;;;;8.18;6.18;;;7.20;99.90;;;;;;5036683;28;20021;-59
2020/12/21 09:31:30;;;;;;;10.88;6.30;;;7.20;99.90;;;;;;5047142;28;20032;-59
2020/12/21 09:33:55;;;;;;;23.17;8.30;;;7.20;99.90;;;;;;5040880;28;20539;-60
2020/12/21 09:36:21;;;;;;;13.80;7.25;;;7.10;99.90;;;;;;5040189;28;20478;-58
2020/12/21 09:38:48;;;;;;;14.52;8.55;;;7.20;99.90;;;;;;5038639;28;20132;-59
2020/12/21 09:41:17;;;;;;;12.32;6.90;;;7.20;99.90;;;;;;5035340;28;20075;-60
2020/12/21 09:43:44;;;;;;;10.98;7.18;;;7.20;99.90;;;;;;5039572;28;20021;-59
2020/12/21 09:46:20;;;;;;;14.98;7.68;;;7.20;99.90;;;;;;5043020;28;20024;-59
2020/12/21 09:48:47;;;;;;;11.07;6.88;;;7.30;99.90;;;;;;5053443;28;20026;-58
2020/12/21 09:51:12;;;;;;;14.50;7.63;;;7.30;99.90;;;;;;5045885;28;20037;-59
2020/12/21 09:53:39;;;;;;;13.10;6.68;;;7.40;99.90;;;;;;5041905;28;20071;-59
2020/12/21 09:56:04;;;;;;;11.45;7.35;;;7.50;99.90;;;;;;5038570;28;20021;-59
2020/12/21 09:58:30;;;;;;;12.50;7.20;;;7.60;99.90;;;;;;5045712;28;20129;-59
2020/12/21 10:00:55;;;;;;;14.82;9.13;;;7.70;99.90;;;;;;5043084;28;20609;-60
2020/12/21 10:03:20;;;;;;;16.65;9.00;;;7.70;99.90;;;;;;5035281;28;20104;-59
2020/12/21 10:05:46;;;;;;;15.43;9.50;;;7.90;99.90;;;;;;5042329;28;20061;-59
2020/12/21 10:08:12;;;;;;;12.15;6.93;;;7.80;99.90;;;;;;5045930;28;20025;-59
2020/12/21 10:10:37;;;;;;;12.48;6.97;;;7.90;99.90;;;;;;5053760;28;20029;-59
2020/12/21 10:13:03;;;;;;;13.77;8.73;;;7.90;99.90;;;;;;5043550;28;20030;-59
2020/12/21 10:15:28;;;;;;;13.52;9.23;;;8.00;99.90;;;;;;5047581;28;20500;-59
2020/12/21 10:17:54;;;;;;;10.48;7.13;;;8.00;99.90;;;;;;5043461;28;20033;-59
2020/12/21 10:20:19;;;;;;;12.25;6.88;;;7.90;99.90;;;;;;5036396;28;20033;-60
2020/12/21 10:22:44;;;;;;;13.23;8.63;;;7.80;99.90;;;;;;5040344;28;20136;-59
2020/12/21 10:25:10;;;;;;;11.75;7.53;;;7.80;99.90;;;;;;5049777;28;20028;-59
2020/12/21 10:27:35;;;;;;;11.10;7.07;;;7.90;99.90;;;;;;5041672;28;20028;-59
2020/12/21 10:30:01;;;;;;;12.48;7.13;;;7.80;99.90;;;;;;5043841;28;20032;-60
2020/12/21 10:32:26;;;;;;;10.98;6.55;;;7.80;99.90;;;;;;5040262;28;20033;-59
2020/12/21 10:34:54;;;;;;;11.48;7.28;;;7.70;99.90;;;;;;5045494;28;20462;-59
2020/12/21 10:37:20;;;;;;;12.07;6.70;;;7.70;99.90;;;;;;5049511;28;20029;-60
2020/12/21 10:39:45;;;;;;;16.13;9.00;;;7.60;99.90;;;;;;5038433;28;20139;-59
2020/12/21 10:42:11;;;;;;;19.42;13.32;;;7.50;99.90;;;;;;5039518;28;20501;-63
2020/12/21 10:44:36;;;;;;;16.83;9.90;;;7.40;99.90;;;;;;5039684;28;20126;-60
2020/12/21 10:47:02;;;;;;;24.08;10.35;;;7.40;99.90;;;;;;5039431;28;20035;-59
2020/12/21 10:49:27;;;;;;;18.40;9.10;;;7.40;99.90;;;;;;5039900;28;20433;-59
2020/12/21 10:51:53;;;;;;;13.30;8.40;;;7.40;99.90;;;;;;5040408;28;20021;-59
2020/12/21 10:54:18;;;;;;;11.38;6.95;;;7.30;99.90;;;;;;5038660;28;20548;-59
2020/12/21 10:56:44;;;;;;;12.07;7.38;;;7.30;99.90;;;;;;5041913;28;20028;-60
2020/12/21 10:59:09;;;;;;;11.25;7.30;;;7.20;99.90;;;;;;5036909;28;20034;-60
2020/12/21 11:01:35;;;;;;;12.00;6.82;;;7.20;99.90;;;;;;5034928;28;20036;-59
2020/12/21 11:04:00;;;;;;;11.38;6.65;;;7.20;99.90;;;;;;5033663;28;20091;-60
2020/12/21 11:06:26;;;;;;;14.30;8.45;;;7.10;99.90;;;;;;5036746;28;20592;-59
2020/12/21 11:08:52;;;;;;;10.05;6.68;;;7.10;99.90;;;;;;5035780;28;20014;-60
2020/12/21 11:11:25;;;;;;;8.65;5.60;;;7.10;99.90;;;;;;5038803;28;20033;-60
2020/12/21 11:13:52;;;;;;;9.23;6.22;;;7.10;99.90;;;;;;5036151;28;20493;-59
2020/12/21 11:16:17;;;;;;;13.75;7.78;;;7.10;99.90;;;;;;5036980;28;20033;-59
2020/12/21 11:18:42;;;;;;;12.30;7.45;;;7.20;99.90;;;;;;5041662;28;20427;-59
2020/12/21 11:21:08;;;;;;;12.77;8.05;;;7.40;99.90;;;;;;5045364;28;20067;-59
2020/12/21 11:23:33;;;;;;;12.18;7.60;;;7.50;99.90;;;;;;5041009;28;20521;-59
2020/12/21 11:25:59;;;;;;;11.18;7.20;;;7.60;99.90;;;;;;5045452;28;20059;-60
2020/12/21 11:28:24;;;;;;;10.80;5.95;;;7.70;99.90;;;;;;5043972;28;20025;-59
2020/12/21 11:30:50;;;;;;;13.48;8.18;;;7.70;99.90;;;;;;5042548;28;20025;-59
2020/12/21 11:33:15;;;;;;;15.35;9.15;;;7.70;99.90;;;;;;5044907;28;20037;-59
2020/12/21 11:35:41;;;;;;;16.33;9.68;;;7.80;99.90;;;;;;5043706;28;20039;-59
2020/12/21 11:38:07;;;;;;;12.75;7.28;;;7.70;99.90;;;;;;5040919;28;20037;-59
2020/12/21 11:40:34;;;;;;;15.20;9.05;;;7.70;99.90;;;;;;5038337;28;20104;-59
2020/12/21 11:43:00;;;;;;;15.95;8.85;;;7.60;99.90;;;;;;5040342;28;20029;-58
2020/12/21 11:45:25;;;;;;;13.57;9.15;;;7.60;99.90;;;;;;5044745;28;20036;-59
2020/12/21 11:47:51;;;;;;;21.95;12.50;;;7.50;99.90;;;;;;5043635;28;20061;-61
2020/12/21 11:50:16;;;;;;;24.20;12.77;;;7.50;99.90;;;;;;5038253;28;20521;-59
2020/12/21 11:52:42;;;;;;;16.42;10.10;;;7.30;99.90;;;;;;5035982;28;20044;-59
2020/12/21 11:55:09;;;;;;;17.27;9.73;;;7.30;99.90;;;;;;5039543;28;20057;-59
2020/12/21 11:57:35;;;;;;;19.42;11.30;;;7.20;99.90;;;;;;5040852;28;20379;-59
2020/12/21 12:00:00;;;;;;;18.05;9.65;;;7.10;99.90;;;;;;5039206;28;20075;-59
2020/12/21 12:02:26;;;;;;;14.95;9.23;;;7.10;99.90;;;;;;5038424;28;20048;-59
2020/12/21 12:04:51;;;;;;;13.20;8.80;;;7.10;99.90;;;;;;5037196;28;20103;-59
2020/12/21 12:07:17;;;;;;;18.90;9.32;;;7.10;99.90;;;;;;5041034;28;20064;-59
2020/12/21 12:09:42;;;;;;;15.10;8.25;;;7.00;99.90;;;;;;5036528;28;20527;-59
2020/12/21 12:12:08;;;;;;;16.00;8.80;;;7.00;99.90;;;;;;5041315;28;20021;-59
2020/12/21 12:14:34;;;;;;;12.13;7.78;;;7.00;99.90;;;;;;5034500;28;20395;-59
2020/12/21 12:16:59;;;;;;;15.32;7.88;;;7.00;99.90;;;;;;5040004;28;20025;-59
2020/12/21 12:19:26;;;;;;;14.25;7.32;;;7.00;99.90;;;;;;5033841;28;20078;-60
2020/12/21 12:21:52;;;;;;;17.27;8.70;;;6.90;99.90;;;;;;5029613;28;20432;-59
2020/12/21 12:24:17;;;;;;;16.10;9.38;;;6.90;99.90;;;;;;5047095;28;20112;-60
2020/12/21 12:26:43;;;;;;;16.27;9.45;;;6.90;99.90;;;;;;5033578;28;20116;-59
2020/12/21 12:29:09;;;;;;;18.55;9.20;;;7.00;99.90;;;;;;5036347;28;20184;-59
2020/12/21 12:31:35;;;;;;;16.48;9.18;;;7.00;99.90;;;;;;5034949;28;20033;-59
2020/12/21 12:34:01;;;;;;;13.48;8.60;;;7.00;99.90;;;;;;5035128;28;20478;-59
2020/12/21 12:36:27;;;;;;;14.60;9.02;;;7.00;99.90;;;;;;5040268;28;20039;-60
2020/12/21 12:38:54;;;;;;;12.25;7.43;;;7.00;99.90;;;;;;5036837;28;20500;-59
2020/12/21 12:41:20;;;;;;;14.30;7.35;;;7.00;99.90;;;;;;5035908;28;20041;-59